createdAt,value
2023-05-04T00:01:24.778Z,9.10
2023-05-04T00:03:54.674Z,9.10
2023-05-04T00:06:24.414Z,9.10
2023-05-04T00:08:52.706Z,9.00
2023-05-04T00:11:21.132Z,8.90
2023-05-04T00:13:49.399Z,8.90
2023-05-04T00:16:17.890Z,8.80
2023-05-04T00:18:46.204Z,8.70
2023-05-04T00:21:14.909Z,8.70
2023-05-04T00:23:44.382Z,8.70
2023-05-04T00:26:12.528Z,8.70
2023-05-04T00:28:40.895Z,8.70
2023-05-04T00:31:09.308Z,8.70
2023-05-04T00:33:37.722Z,8.60
2023-05-04T00:36:06.557Z,8.60
2023-05-04T00:38:47.207Z,8.50
2023-05-04T00:41:17.214Z,8.50
2023-05-04T00:43:45.554Z,8.40
2023-05-04T00:46:14.195Z,8.40
2023-05-04T00:48:43.242Z,8.40
2023-05-04T00:51:13.394Z,8.40
2023-05-04T00:53:42.727Z,8.40
2023-05-04T00:56:11.714Z,8.40
2023-05-04T00:58:41.518Z,8.30
2023-05-04T01:01:09.656Z,8.30
2023-05-04T01:03:37.923Z,8.30
2023-05-04T01:06:17.407Z,8.30
2023-05-04T01:08:52.888Z,8.30
2023-05-04T01:11:26.286Z,8.30
2023-05-04T01:13:57.704Z,8.30
2023-05-04T01:16:25.883Z,8.30
2023-05-04T01:18:54.319Z,8.20
2023-05-04T01:21:22.592Z,8.20
2023-05-04T01:23:52.357Z,8.10
2023-05-04T01:26:25.474Z,8.10
2023-05-04T01:28:59.298Z,8.10
2023-05-04T01:31:28.081Z,8.10
2023-05-04T01:33:57.413Z,8.10
2023-05-04T01:36:25.753Z,8.10
2023-05-04T01:38:56.871Z,8.10
2023-05-04T01:41:25.300Z,8.10
2023-05-04T01:43:54.131Z,8.10
2023-05-04T01:46:22.806Z,8.00
2023-05-04T01:48:50.986Z,8.00
2023-05-04T01:51:19.057Z,7.90
2023-05-04T01:53:47.463Z,7.80
2023-05-04T01:56:17.039Z,7.70
2023-05-04T01:58:45.099Z,7.70
2023-05-04T02:01:13.380Z,7.80
2023-05-04T02:03:41.820Z,7.80
2023-05-04T02:06:10.035Z,7.80
2023-05-04T02:08:38.233Z,7.80
2023-05-04T02:11:06.541Z,7.90
2023-05-04T02:13:36.566Z,7.90
2023-05-04T02:16:04.948Z,8.00
2023-05-04T02:18:33.128Z,8.00
2023-05-04T02:21:01.432Z,7.90
2023-05-04T02:23:29.946Z,7.80
2023-05-04T02:25:58.252Z,7.70
2023-05-04T02:28:26.449Z,7.60
2023-05-04T02:30:56.243Z,7.60
2023-05-04T02:33:24.379Z,7.50
2023-05-04T02:35:52.688Z,7.50
2023-05-04T02:38:20.936Z,7.50
2023-05-04T02:40:48.991Z,7.40
2023-05-04T02:43:17.068Z,7.50
2023-05-04T02:45:45.572Z,7.60
2023-05-04T02:48:15.066Z,7.60
2023-05-04T02:50:43.139Z,7.60
2023-05-04T02:53:11.155Z,7.60
2023-05-04T02:55:39.256Z,7.60
2023-05-04T02:58:07.526Z,7.60
2023-05-04T03:00:35.862Z,7.50
2023-05-04T03:03:03.833Z,7.40
2023-05-04T03:05:33.231Z,7.30
2023-05-04T03:08:01.462Z,7.30
2023-05-04T03:10:29.480Z,7.20
2023-05-04T03:12:57.635Z,7.20
2023-05-04T03:15:25.862Z,7.10
2023-05-04T03:17:53.843Z,7.10
2023-05-04T03:20:21.934Z,7.10
2023-05-04T03:22:51.280Z,7.00
2023-05-04T03:25:19.516Z,7.00
2023-05-04T03:27:47.560Z,7.00
2023-05-04T03:30:16.238Z,7.00
2023-05-04T03:32:44.297Z,6.90
2023-05-04T03:35:12.768Z,6.90
2023-05-04T03:37:40.780Z,6.90
2023-05-04T03:40:11.103Z,6.90
2023-05-04T03:42:39.185Z,6.90
2023-05-04T03:45:08.348Z,7.00
2023-05-04T03:47:36.398Z,7.00
2023-05-04T03:50:04.970Z,7.00
2023-05-04T03:52:33.278Z,7.00
2023-05-04T03:55:01.299Z,7.00
2023-05-04T03:57:30.666Z,6.90
2023-05-04T03:59:58.704Z,6.90
2023-05-04T04:02:26.965Z,7.00
2023-05-04T04:04:55.039Z,7.00
2023-05-04T04:07:23.096Z,7.10
2023-05-04T04:09:52.387Z,7.00
2023-05-04T04:12:20.563Z,7.00
2023-05-04T04:14:51.930Z,6.90
2023-05-04T04:17:20.111Z,6.90
2023-05-04T04:19:48.205Z,6.90
2023-05-04T04:22:16.237Z,6.90
2023-05-04T04:24:44.246Z,7.00
2023-05-04T04:27:12.329Z,7.00
2023-05-04T04:29:40.375Z,7.00
2023-05-04T04:32:09.740Z,7.00
2023-05-04T04:34:38.674Z,7.00
2023-05-04T04:37:06.669Z,7.00
2023-05-04T04:39:34.735Z,6.90
2023-05-04T04:42:02.842Z,7.00
2023-05-04T04:44:30.880Z,7.00
2023-05-04T04:46:58.949Z,7.00
2023-05-04T04:49:28.835Z,7.10
2023-05-04T04:51:56.863Z,7.10
2023-05-04T04:54:24.839Z,7.10
2023-05-04T04:56:53.602Z,7.10
2023-05-04T04:59:24.608Z,7.10
2023-05-04T05:01:52.656Z,7.20
2023-05-04T05:04:24.780Z,7.30
2023-05-04T05:06:54.464Z,7.30
2023-05-04T05:09:22.735Z,7.40
2023-05-04T05:11:50.761Z,7.40
2023-05-04T05:14:18.786Z,7.40
2023-05-04T05:16:46.945Z,7.40
2023-05-04T05:19:15.361Z,7.60
2023-05-04T05:21:43.361Z,8.20
2023-05-04T05:24:13.011Z,8.90
2023-05-04T05:26:41.336Z,9.50
2023-05-04T05:29:09.538Z,9.70
2023-05-04T05:31:37.543Z,9.90
2023-05-04T05:34:05.553Z,9.90
2023-05-04T05:36:33.556Z,9.90
2023-05-04T05:39:01.579Z,9.70
2023-05-04T05:41:30.964Z,9.60
2023-05-04T05:43:59.389Z,9.40
2023-05-04T05:46:28.139Z,9.30
2023-05-04T05:48:56.275Z,9.20
2023-05-04T05:51:24.272Z,9.20
2023-05-04T05:53:52.294Z,9.20
2023-05-04T05:56:20.365Z,9.30
2023-05-04T05:58:52.525Z,9.40
2023-05-04T06:01:20.553Z,9.50
2023-05-04T06:03:48.728Z,9.60
2023-05-04T06:06:17.300Z,9.60
2023-05-04T06:08:45.355Z,9.80
2023-05-04T06:11:14.018Z,9.90
2023-05-04T06:13:42.021Z,10.10
2023-05-04T06:16:11.476Z,10.30
2023-05-04T06:18:39.493Z,10.40
2023-05-04T06:21:07.585Z,10.60
2023-05-04T06:23:35.616Z,10.80
2023-05-04T06:26:05.797Z,10.90
2023-05-04T06:28:33.872Z,11.10
2023-05-04T06:31:02.192Z,11.30
2023-05-04T06:33:31.588Z,11.50
2023-05-04T06:35:59.805Z,11.70
2023-05-04T06:38:27.897Z,11.80
2023-05-04T06:40:55.933Z,12.00
2023-05-04T06:43:24.058Z,12.20
2023-05-04T06:45:52.106Z,12.30
2023-05-04T06:48:20.188Z,12.50
2023-05-04T06:50:49.576Z,12.60
2023-05-04T06:53:17.784Z,12.70
2023-05-04T06:55:45.880Z,12.90
2023-05-04T06:58:13.872Z,13.10
2023-05-04T07:00:43.267Z,13.20
2023-05-04T07:03:11.572Z,13.40
2023-05-04T07:05:39.643Z,13.50
2023-05-04T07:08:10.116Z,13.70
2023-05-04T07:10:38.212Z,13.80
2023-05-04T07:13:06.311Z,13.80
2023-05-04T07:15:34.852Z,13.90
2023-05-04T07:18:02.934Z,14.10
2023-05-04T07:20:31.054Z,14.20
2023-05-04T07:22:59.118Z,14.40
2023-05-04T07:25:29.465Z,14.50
2023-05-04T07:27:58.345Z,14.60
2023-05-04T07:30:26.523Z,14.70
2023-05-04T07:32:54.959Z,14.80
2023-05-04T07:35:23.510Z,14.90
2023-05-04T07:37:51.758Z,15.00
2023-05-04T07:40:20.267Z,15.00
2023-05-04T07:42:49.638Z,15.20
2023-05-04T07:45:17.744Z,15.30
2023-05-04T07:47:46.029Z,15.50
2023-05-04T07:50:14.691Z,15.60
2023-05-04T07:52:42.705Z,15.70
2023-05-04T07:55:11.091Z,15.80
2023-05-04T07:57:39.859Z,15.90
2023-05-04T08:00:10.953Z,16.00
2023-05-04T08:02:39.355Z,16.00
2023-05-04T08:05:08.527Z,16.10
2023-05-04T08:07:36.557Z,16.20
2023-05-04T08:10:05.102Z,16.30
2023-05-04T08:12:33.429Z,16.30
2023-05-04T08:15:01.452Z,16.50
2023-05-04T08:17:30.920Z,16.60
2023-05-04T08:19:58.979Z,16.70
2023-05-04T08:22:27.147Z,16.80
2023-05-04T08:24:55.144Z,16.80
2023-05-04T08:27:23.172Z,16.90
2023-05-04T08:29:51.164Z,16.90
2023-05-04T08:32:19.519Z,16.90
2023-05-04T08:34:48.881Z,16.90
2023-05-04T08:37:16.955Z,16.90
2023-05-04T08:39:44.975Z,17.00
2023-05-04T08:42:13.242Z,17.10
2023-05-04T08:44:42.749Z,17.10
2023-05-04T08:47:12.304Z,17.20
2023-05-04T08:49:40.347Z,17.20
2023-05-04T08:52:11.034Z,17.30
2023-05-04T08:54:39.992Z,17.30
2023-05-04T08:57:08.135Z,17.40
2023-05-04T08:59:37.336Z,17.50
2023-05-04T09:02:05.882Z,17.60
2023-05-04T09:04:34.126Z,17.60
2023-05-04T09:07:02.113Z,17.60
2023-05-04T09:09:32.242Z,17.70
2023-05-04T09:12:00.279Z,17.70
2023-05-04T09:14:34.137Z,17.80
2023-05-04T09:17:02.610Z,17.80
2023-05-04T09:19:34.637Z,17.80
2023-05-04T09:22:02.830Z,17.70
2023-05-04T09:24:32.296Z,17.80
2023-05-04T09:27:11.151Z,17.90
2023-05-04T09:29:40.555Z,18.00
2023-05-04T09:32:13.435Z,18.20
2023-05-04T09:34:51.603Z,18.30
2023-05-04T09:37:21.241Z,18.50
2023-05-04T09:39:55.436Z,18.50
2023-05-04T09:42:24.729Z,18.50
2023-05-04T09:45:03.350Z,18.50
2023-05-04T09:47:36.769Z,18.60
2023-05-04T09:50:17.613Z,18.60
2023-05-04T09:52:48.089Z,18.60
2023-05-04T09:55:19.588Z,18.60
2023-05-04T09:57:49.323Z,18.60
2023-05-04T10:00:19.277Z,18.60
2023-05-04T10:02:48.634Z,18.60
2023-05-04T10:05:18.506Z,18.60
2023-05-04T10:07:46.885Z,18.70
2023-05-04T10:10:17.135Z,18.80
2023-05-04T10:12:45.941Z,18.90
2023-05-04T10:15:15.893Z,19.00
2023-05-04T10:18:06.944Z,19.00
2023-05-04T10:20:58.134Z,19.00
2023-05-04T10:23:49.371Z,19.00
2023-05-04T10:26:43.061Z,19.00
2023-05-04T10:29:21.960Z,19.10
2023-05-04T10:31:52.018Z,19.20
2023-05-04T10:34:27.012Z,19.30
2023-05-04T10:36:55.411Z,19.30
2023-05-04T10:39:26.291Z,19.30
2023-05-04T10:42:00.318Z,19.40
2023-05-04T10:44:29.084Z,19.40
2023-05-04T10:47:02.740Z,19.60
2023-05-04T10:49:31.061Z,19.60
2023-05-04T10:52:12.828Z,19.70
2023-05-04T10:54:42.083Z,19.70
2023-05-04T10:57:13.624Z,19.80
2023-05-04T10:59:42.079Z,19.80
2023-05-04T11:02:10.243Z,19.60
2023-05-04T11:04:39.327Z,19.60
2023-05-04T11:07:08.859Z,19.60
2023-05-04T11:09:38.772Z,19.40
2023-05-04T11:12:10.435Z,19.50
2023-05-04T11:14:43.084Z,19.50
2023-05-04T11:17:27.606Z,19.50
2023-05-04T11:19:56.768Z,19.60
2023-05-04T11:22:25.160Z,19.70
2023-05-04T11:24:55.572Z,19.70
2023-05-04T11:27:28.766Z,19.60
2023-05-04T11:29:59.292Z,19.60
2023-05-04T11:32:38.007Z,19.60
2023-05-04T11:35:09.316Z,19.60
2023-05-04T11:37:41.861Z,19.60
2023-05-04T11:40:11.969Z,19.60
2023-05-04T11:42:41.206Z,19.50
2023-05-04T11:45:14.346Z,19.50
2023-05-04T11:47:43.127Z,19.60
2023-05-04T11:50:13.126Z,19.60
2023-05-04T11:52:41.803Z,19.60
2023-05-04T11:55:11.495Z,19.70
2023-05-04T11:57:40.352Z,19.70
2023-05-04T12:00:11.516Z,19.70
2023-05-04T12:02:39.666Z,19.70
2023-05-04T12:05:14.360Z,19.70
2023-05-04T12:07:42.492Z,19.80
2023-05-04T12:10:11.041Z,19.90
2023-05-04T12:12:39.130Z,20.00
2023-05-04T12:15:08.270Z,20.00
2023-05-04T12:17:45.456Z,20.10
2023-05-04T12:20:24.205Z,20.10
2023-05-04T12:22:52.366Z,20.10
2023-05-04T12:25:20.883Z,20.20
2023-05-04T12:27:49.174Z,20.20
2023-05-04T12:30:18.086Z,20.10
2023-05-04T12:32:47.504Z,20.20
2023-05-04T12:35:15.568Z,20.20
2023-05-04T12:37:43.662Z,20.30
2023-05-04T12:40:27.279Z,20.30
2023-05-04T12:42:56.661Z,20.30
2023-05-04T12:45:24.941Z,20.30
2023-05-04T12:47:54.380Z,20.40
2023-05-04T12:50:22.496Z,20.50
2023-05-04T12:52:50.552Z,20.50
2023-05-04T12:55:18.729Z,20.50
2023-05-04T12:57:46.765Z,20.60
2023-05-04T13:00:16.205Z,20.60
2023-05-04T13:02:44.458Z,20.50
2023-05-04T13:05:15.754Z,20.50
2023-05-04T13:07:43.980Z,20.40
2023-05-04T13:10:12.349Z,20.40
2023-05-04T13:12:40.600Z,20.50
2023-05-04T13:15:09.990Z,20.50
2023-05-04T13:17:38.090Z,20.50
2023-05-04T13:20:07.262Z,20.50
2023-05-04T13:22:37.072Z,20.40
2023-05-04T13:25:06.246Z,20.50
2023-05-04T13:27:34.839Z,20.50
2023-05-04T13:30:04.103Z,20.50
2023-05-04T13:32:33.155Z,20.50
2023-05-04T13:35:01.281Z,20.30
2023-05-04T13:37:29.270Z,20.30
2023-05-04T13:39:59.506Z,20.50
2023-05-04T13:42:27.685Z,20.50
2023-05-04T13:44:55.709Z,20.50
2023-05-04T13:47:23.938Z,20.60
2023-05-04T13:49:52.026Z,20.60
2023-05-04T13:52:20.107Z,20.70
2023-05-04T13:54:48.175Z,20.70
2023-05-04T13:57:17.581Z,20.70
2023-05-04T13:59:58.321Z,20.60
2023-05-04T14:02:30.895Z,20.70
2023-05-04T14:04:58.934Z,20.60
2023-05-04T14:07:26.942Z,20.60
2023-05-04T14:09:54.987Z,20.70
2023-05-04T14:12:24.408Z,20.70
2023-05-04T14:14:52.629Z,20.70
2023-05-04T14:17:20.631Z,20.60
2023-05-04T14:19:48.690Z,20.60
2023-05-04T14:22:16.719Z,20.50
2023-05-04T14:24:44.759Z,20.50
2023-05-04T14:27:12.780Z,20.40
2023-05-04T14:29:42.293Z,20.40
2023-05-04T14:32:10.517Z,20.40
2023-05-04T14:34:38.656Z,20.40
2023-05-04T14:37:06.651Z,20.30
2023-05-04T14:39:34.676Z,20.30
2023-05-04T14:42:03.240Z,20.40
2023-05-04T14:44:31.264Z,20.50
2023-05-04T14:47:02.434Z,20.60
2023-05-04T14:52:03.784Z,20.70
2023-05-04T14:54:31.970Z,20.70
2023-05-04T14:57:00.225Z,20.70
2023-05-04T14:59:28.331Z,20.70
2023-05-04T15:01:57.469Z,20.70
2023-05-04T15:04:26.874Z,20.70
2023-05-04T15:06:54.861Z,20.60
2023-05-04T15:09:22.925Z,20.60
2023-05-04T15:11:50.936Z,20.50
2023-05-04T15:14:19.040Z,20.40
2023-05-04T15:16:47.189Z,20.40
2023-05-04T15:19:15.616Z,20.30
2023-05-04T15:21:45.047Z,20.20
2023-05-04T15:24:13.054Z,20.20
2023-05-04T15:26:41.102Z,20.20
2023-05-04T15:29:09.136Z,20.20
2023-05-04T15:31:37.261Z,20.20
2023-05-04T15:34:05.359Z,20.20
2023-05-04T15:36:33.397Z,20.20
2023-05-04T15:39:04.448Z,20.20
2023-05-04T15:41:32.515Z,20.20
2023-05-04T15:44:01.063Z,20.10
2023-05-04T15:46:29.228Z,20.10
2023-05-04T15:48:57.319Z,20.10
2023-05-04T15:51:25.300Z,20.20
2023-05-04T15:53:53.317Z,20.10
2023-05-04T15:56:22.683Z,20.20
2023-05-04T15:58:50.761Z,20.10
2023-05-04T16:01:18.847Z,20.10
2023-05-04T16:03:47.095Z,20.10
2023-05-04T16:06:15.599Z,20.00
2023-05-04T16:08:43.650Z,19.90
2023-05-04T16:11:11.854Z,19.70
2023-05-04T16:13:41.249Z,19.70
2023-05-04T16:16:10.131Z,19.60
2023-05-04T16:18:38.140Z,19.60
2023-05-04T16:21:06.165Z,19.50
2023-05-04T16:23:34.181Z,19.40
2023-05-04T16:26:02.179Z,19.50
2023-05-04T16:28:30.230Z,19.50
2023-05-04T16:30:59.687Z,19.40
2023-05-04T16:33:27.802Z,19.30
2023-05-04T16:35:55.842Z,19.20
2023-05-04T16:38:25.001Z,19.20
2023-05-04T16:40:53.068Z,19.10
2023-05-04T16:43:21.132Z,19.10
2023-05-04T16:45:49.174Z,19.20
2023-05-04T16:48:18.762Z,19.10
2023-05-04T16:50:46.816Z,19.10
2023-05-04T16:53:14.892Z,19.10
2023-05-04T16:55:42.928Z,19.00
2023-05-04T16:58:10.953Z,19.00
2023-05-04T17:00:42.502Z,18.90
2023-05-04T17:03:10.668Z,18.90
2023-05-04T17:05:40.164Z,18.80
2023-05-04T17:08:08.225Z,18.80
2023-05-04T17:10:36.268Z,18.80
2023-05-04T17:13:04.318Z,18.70
2023-05-04T17:15:32.835Z,18.70
2023-05-04T17:18:01.664Z,18.70
2023-05-04T17:20:31.842Z,18.70
2023-05-04T17:23:01.745Z,18.60
2023-05-04T17:25:29.808Z,18.60
2023-05-04T17:27:57.855Z,18.50
2023-05-04T17:30:26.373Z,18.50
2023-05-04T17:32:57.116Z,18.40
2023-05-04T17:35:26.747Z,18.40
2023-05-04T17:37:58.028Z,18.30
2023-05-04T17:40:28.645Z,18.20
2023-05-04T17:42:56.986Z,18.20
2023-05-04T17:45:25.533Z,18.10
2023-05-04T17:47:53.976Z,18.10
2023-05-04T17:50:22.254Z,18.00
2023-05-04T17:52:53.136Z,17.90
2023-05-04T17:55:21.301Z,17.80
2023-05-04T17:57:50.814Z,17.80
2023-05-04T18:00:19.343Z,17.70
2023-05-04T18:02:47.554Z,17.60
2023-05-04T18:05:15.761Z,17.50
2023-05-04T18:07:43.820Z,17.50
2023-05-04T18:10:12.402Z,17.40
2023-05-04T18:12:40.767Z,17.30
2023-05-04T18:15:11.244Z,17.20
2023-05-04T18:17:39.375Z,17.10
2023-05-04T18:20:10.239Z,17.00
2023-05-04T18:22:38.481Z,17.00
2023-05-04T18:25:07.548Z,16.80
2023-05-04T18:27:36.301Z,16.70
2023-05-04T18:30:06.245Z,16.70
2023-05-04T18:32:36.230Z,16.60
2023-05-04T18:35:04.550Z,16.50
2023-05-04T18:37:32.596Z,16.50
2023-05-04T18:40:01.763Z,16.40
2023-05-04T18:42:29.937Z,16.30
2023-05-04T18:44:57.983Z,16.30
2023-05-04T18:47:26.140Z,16.20
2023-05-04T18:49:56.400Z,16.10
2023-05-04T18:52:24.619Z,16.10
2023-05-04T18:54:52.689Z,16.00
2023-05-04T18:57:20.718Z,16.00
2023-05-04T18:59:48.883Z,15.90
2023-05-04T19:02:17.460Z,15.90
2023-05-04T19:04:46.861Z,15.80
2023-05-04T19:07:17.168Z,15.70
2023-05-04T19:09:46.364Z,15.70
2023-05-04T19:12:15.447Z,15.60
2023-05-04T19:14:51.245Z,15.60
2023-05-04T19:17:19.839Z,15.60
2023-05-04T19:19:47.852Z,15.50
2023-05-04T19:22:17.265Z,15.50
2023-05-04T19:24:45.465Z,15.40
2023-05-04T19:27:13.471Z,15.40
2023-05-04T19:29:41.481Z,15.40
2023-05-04T19:32:22.805Z,15.30
2023-05-04T19:34:52.079Z,15.30
2023-05-04T19:37:21.855Z,15.30
2023-05-04T19:39:49.937Z,15.20
2023-05-04T19:42:18.186Z,15.20
2023-05-04T19:44:46.206Z,15.20
2023-05-04T19:47:14.267Z,15.20
2023-05-04T19:49:42.323Z,15.20
2023-05-04T19:52:10.405Z,15.20
2023-05-04T19:54:41.303Z,15.20
2023-05-04T19:57:10.050Z,15.10
2023-05-04T19:59:38.068Z,15.10
2023-05-04T20:02:06.245Z,15.10
2023-05-04T20:04:34.794Z,15.00
2023-05-04T20:07:02.840Z,15.00
2023-05-04T20:09:30.868Z,15.00
2023-05-04T20:12:00.417Z,15.00
2023-05-04T20:14:28.440Z,15.00
2023-05-04T20:16:56.802Z,14.90
2023-05-04T20:19:25.022Z,14.90
2023-05-04T20:21:53.216Z,14.90
2023-05-04T20:24:21.531Z,14.80
2023-05-04T20:26:49.576Z,14.80
2023-05-04T20:29:19.169Z,14.80
2023-05-04T20:31:47.239Z,14.70
2023-05-04T20:34:16.905Z,14.70
2023-05-04T20:36:46.980Z,14.70
2023-05-04T20:39:15.725Z,14.60
2023-05-04T20:41:43.770Z,14.60
2023-05-04T20:44:11.808Z,14.50
2023-05-04T20:46:41.291Z,14.40
2023-05-04T20:49:09.440Z,14.40
2023-05-04T20:51:37.704Z,14.40
2023-05-04T20:54:05.831Z,14.30
2023-05-04T20:56:33.864Z,14.30
2023-05-04T20:59:01.887Z,14.30
2023-05-04T21:01:30.663Z,14.30
2023-05-04T21:04:00.274Z,14.30
2023-05-04T21:06:28.442Z,14.30
2023-05-04T21:08:57.203Z,14.20
2023-05-04T21:11:25.274Z,14.30
2023-05-04T21:13:53.555Z,14.30
2023-05-04T21:16:21.650Z,14.20
2023-05-04T21:18:49.659Z,14.20
2023-05-04T21:21:19.051Z,14.20
2023-05-04T21:23:47.062Z,14.20
2023-05-04T21:26:15.882Z,14.20
2023-05-04T21:28:43.879Z,14.10
2023-05-04T21:31:11.994Z,14.10
2023-05-04T21:33:40.063Z,14.10
2023-05-04T21:36:15.302Z,14.10
2023-05-04T21:38:44.736Z,14.00
2023-05-04T21:41:13.937Z,14.00
2023-05-04T21:43:42.241Z,13.90
2023-05-04T21:46:11.990Z,13.90
2023-05-04T21:48:40.732Z,13.90
2023-05-04T21:51:09.030Z,13.90
2023-05-04T21:53:37.055Z,13.80
2023-05-04T21:56:09.655Z,13.80
2023-05-04T21:58:39.561Z,13.80
2023-05-04T22:01:08.114Z,13.70
2023-05-04T22:03:36.352Z,13.70
2023-05-04T22:06:04.728Z,13.70
2023-05-04T22:08:32.783Z,13.70
2023-05-04T22:11:01.202Z,13.60
2023-05-04T22:13:30.688Z,13.50
2023-05-04T22:15:58.780Z,13.50
2023-05-04T22:18:26.800Z,13.50
2023-05-04T22:20:54.847Z,13.40
2023-05-04T22:23:22.974Z,13.40
2023-05-04T22:25:51.104Z,13.40
2023-05-04T22:28:19.148Z,13.30
2023-05-04T22:30:48.553Z,13.30
2023-05-04T22:33:16.621Z,13.30
2023-05-04T22:35:44.843Z,13.20
2023-05-04T22:38:14.303Z,13.20
2023-05-04T22:40:43.597Z,13.20
2023-05-04T22:43:11.639Z,13.30
2023-05-04T22:45:40.214Z,13.20
2023-05-04T22:48:09.846Z,13.20
2023-05-04T22:50:37.853Z,13.20
2023-05-04T22:53:05.978Z,13.10
2023-05-04T22:55:34.112Z,13.10
2023-05-04T22:58:02.195Z,13.00
2023-05-04T23:00:30.448Z,13.00
2023-05-04T23:02:59.118Z,13.00
2023-05-04T23:05:28.651Z,12.90
2023-05-04T23:07:56.699Z,12.90
2023-05-04T23:10:24.746Z,12.90
2023-05-04T23:12:52.835Z,12.80
2023-05-04T23:15:27.057Z,12.70
2023-05-04T23:17:55.094Z,12.70
2023-05-04T23:20:23.138Z,12.70
2023-05-04T23:22:52.549Z,12.60
2023-05-04T23:25:20.967Z,12.60
2023-05-04T23:27:49.080Z,12.60
2023-05-04T23:30:17.270Z,12.50
2023-05-04T23:32:45.583Z,12.50
2023-05-04T23:35:13.812Z,12.50
2023-05-04T23:37:41.980Z,12.40
2023-05-04T23:40:12.208Z,12.40
2023-05-04T23:42:40.218Z,12.30
2023-05-04T23:45:09.280Z,12.30
2023-05-04T23:47:37.373Z,12.30
2023-05-04T23:50:06.015Z,12.20
2023-05-04T23:52:34.390Z,12.20
2023-05-04T23:55:02.724Z,12.20
2023-05-04T23:57:32.131Z,12.10
